Decoded Metar for KMAW ( in ) (IATA:) | Meteo·Mobile Aviation Weather
aviador You're here:

KMAW Decoded Metar

in
Report Time2019-02-18 09:55:00
UTC Time2019-02-18 10:05:28
Flight Rules vfr VFR
Wind290° at 07 kt
W.Decomp.*RWY 32: 6.1 kt HW 3.5 kt LCW
RWY 36: 2.4 kt HW 6.6 kt LCW
W.Rank290° ranks 25
Current wind is below 290° avg. (8.0)
Visibility9999 m
Phenomena:N/A
Clouds:N/A
Expected CloudBase > 1,600 ft AGL from Temp-Dew spread
CeilingNone
Temp-1°C
Dew Point-5°C (75% RH)
AAT-6.1°C
QNH1024 hPa
Raw Report
KMAW 180955Z AUTO 29007KT 10SM CLR M01/M05 A3023 RMK AO2=

Extra information for KMAW:More info

Social comments